Time;durP1;ratioP1;P1;durP2;ratioP2;P2;SDS_P1;SDS_P2;PMS_P1;PMS_P2;Temp;Humidity;BMP_temperature;BMP_pressure;BME280_temperature;BME280_humidity;BME280_pressure;Samples;Min_cycle;Max_cycle;Signal;HPM_P1;HPM_P2
2022/03/25 00:00:50;;;;;;;19.73;14.55;;;12.90;99.90;;;;;;5055388;28;20049;-59
2022/03/25 00:03:17;;;;;;;24.65;15.25;;;12.90;99.90;;;;;;5045333;28;20037;-60
2022/03/25 00:05:45;;;;;;;17.35;13.68;;;13.00;99.90;;;;;;5055173;28;20041;-58
2022/03/25 00:08:15;;;;;;;19.95;14.02;;;13.00;99.90;;;;;;5028621;28;20045;-58
2022/03/25 00:10:42;;;;;;;22.02;13.90;;;12.90;99.90;;;;;;5054800;28;20045;-58
2022/03/25 00:13:10;;;;;;;21.20;14.57;;;12.90;99.90;;;;;;5036969;28;20049;-58
2022/03/25 00:15:38;;;;;;;19.65;14.00;;;12.90;99.90;;;;;;5054775;28;20040;-58
2022/03/25 00:18:06;;;;;;;17.70;12.60;;;12.80;99.90;;;;;;5051533;28;20505;-58
2022/03/25 00:20:34;;;;;;;18.33;13.10;;;12.80;99.90;;;;;;5055007;28;20063;-58
2022/03/25 00:23:01;;;;;;;18.02;13.38;;;12.80;99.90;;;;;;5025217;28;20049;-59
2022/03/25 00:25:29;;;;;;;20.08;13.52;;;12.70;99.90;;;;;;5054477;28;20131;-58
2022/03/25 00:27:57;;;;;;;18.65;13.40;;;12.70;99.90;;;;;;5026858;28;20079;-59
2022/03/25 00:30:25;;;;;;;18.33;12.80;;;12.70;99.90;;;;;;5037180;28;20041;-59
2022/03/25 00:32:54;;;;;;;19.38;13.95;;;12.70;99.90;;;;;;5030492;28;20052;-58
2022/03/25 00:35:21;;;;;;;19.73;13.57;;;12.70;99.90;;;;;;5054952;28;20051;-58
2022/03/25 00:37:49;;;;;;;20.70;12.93;;;12.60;99.90;;;;;;5031143;28;20042;-59
2022/03/25 00:40:16;;;;;;;22.25;14.60;;;12.60;99.90;;;;;;5016910;28;20059;-58
2022/03/25 00:42:47;;;;;;;21.27;14.30;;;12.60;99.90;;;;;;5036254;28;20511;-58
2022/03/25 00:45:15;;;;;;;22.27;15.68;;;12.60;99.90;;;;;;5017473;28;20136;-58
2022/03/25 00:47:42;;;;;;;26.33;15.38;;;12.50;99.90;;;;;;5027416;28;20044;-58
2022/03/25 00:50:14;;;;;;;19.52;14.00;;;12.50;99.90;;;;;;5037169;28;20036;-58
2022/03/25 00:52:44;;;;;;;19.67;14.80;;;12.50;99.90;;;;;;5036307;28;20043;-59
2022/03/25 00:55:12;;;;;;;24.75;15.32;;;12.40;99.90;;;;;;5036048;28;20064;-58
2022/03/25 00:57:40;;;;;;;22.73;15.48;;;12.40;99.90;;;;;;5050273;28;20087;-59
2022/03/25 01:00:08;;;;;;;19.23;14.20;;;12.40;99.90;;;;;;5036186;28;20041;-58
2022/03/25 01:02:36;;;;;;;22.55;15.93;;;12.40;99.80;;;;;;5052670;28;20051;-59
2022/03/25 01:05:03;;;;;;;19.67;14.30;;;12.40;99.40;;;;;;5036519;28;20044;-59
2022/03/25 01:07:31;;;;;;;22.00;14.75;;;12.30;99.10;;;;;;5026062;28;20041;-59
2022/03/25 01:10:00;;;;;;;22.48;16.80;;;12.30;98.90;;;;;;5032510;28;20061;-58
2022/03/25 01:12:27;;;;;;;28.90;16.02;;;12.30;98.60;;;;;;5014194;28;20116;-58
2022/03/25 01:14:55;;;;;;;22.92;16.02;;;12.30;98.30;;;;;;5033039;28;20179;-58
2022/03/25 01:17:22;;;;;;;18.95;13.50;;;12.30;98.10;;;;;;5014935;28;20099;-58
2022/03/25 01:19:51;;;;;;;24.30;14.27;;;12.20;98.10;;;;;;5054162;28;20045;-59
2022/03/25 01:22:19;;;;;;;25.02;15.35;;;12.20;98.00;;;;;;5032389;28;20088;-59
2022/03/25 01:24:47;;;;;;;20.67;14.85;;;12.20;97.90;;;;;;5053558;28;20037;-58
2022/03/25 01:27:15;;;;;;;20.63;13.73;;;12.20;97.90;;;;;;5024840;28;20079;-59
2022/03/25 01:29:43;;;;;;;19.42;13.88;;;12.20;97.90;;;;;;5053616;28;20041;-58
2022/03/25 01:32:10;;;;;;;22.95;14.48;;;12.20;97.90;;;;;;5026578;28;20034;-58
2022/03/25 01:34:38;;;;;;;29.27;13.40;;;12.10;97.90;;;;;;5024452;28;20086;-58
2022/03/25 01:37:06;;;;;;;21.05;13.93;;;12.10;97.90;;;;;;5047050;28;20033;-58
2022/03/25 01:39:34;;;;;;;25.95;13.52;;;12.10;97.90;;;;;;5032313;28;20052;-59
2022/03/25 01:42:01;;;;;;;17.10;12.18;;;12.10;97.70;;;;;;5029839;28;20509;-58
2022/03/25 01:44:30;;;;;;;18.63;12.90;;;12.10;97.70;;;;;;5036288;28;20114;-58
2022/03/25 01:46:59;;;;;;;23.55;13.23;;;12.00;97.70;;;;;;5035529;28;20124;-59
2022/03/25 01:49:27;;;;;;;18.17;13.07;;;12.00;97.70;;;;;;5053797;28;20028;-59
2022/03/25 01:52:02;;;;;;;18.88;12.75;;;12.00;97.60;;;;;;5044915;28;20060;-59
2022/03/25 01:54:32;;;;;;;16.02;12.32;;;12.00;97.40;;;;;;5032703;28;20036;-59
2022/03/25 01:57:06;;;;;;;17.40;11.90;;;12.00;97.10;;;;;;5027906;28;20069;-58
2022/03/25 01:59:34;;;;;;;18.67;13.07;;;12.00;97.00;;;;;;5053830;28;20037;-58
2022/03/25 02:02:03;;;;;;;19.23;14.93;;;12.00;96.90;;;;;;5049337;28;20039;-58
2022/03/25 02:04:31;;;;;;;19.27;13.50;;;12.00;96.80;;;;;;5031892;28;20387;-59
2022/03/25 02:06:59;;;;;;;18.70;12.75;;;12.00;96.70;;;;;;5033095;28;20064;-58
2022/03/25 02:09:27;;;;;;;20.30;13.02;;;12.00;96.50;;;;;;5018374;28;20143;-59
2022/03/25 02:11:59;;;;;;;19.95;14.52;;;12.00;96.40;;;;;;5027059;28;20471;-59
2022/03/25 02:14:27;;;;;;;19.25;12.00;;;11.90;96.30;;;;;;5033550;28;20382;-59
2022/03/25 02:16:55;;;;;;;20.60;12.85;;;11.90;96.30;;;;;;5043277;28;20037;-58
2022/03/25 02:19:24;;;;;;;21.90;13.20;;;11.90;96.00;;;;;;5022959;28;20041;-59
2022/03/25 02:21:52;;;;;;;18.23;13.45;;;11.90;95.40;;;;;;5034754;28;20103;-58
2022/03/25 02:24:29;;;;;;;19.92;12.75;;;11.90;94.90;;;;;;5036229;28;20052;-58
2022/03/25 02:26:58;;;;;;;17.42;11.82;;;12.00;94.70;;;;;;5030406;28;20064;-58
2022/03/25 02:29:26;;;;;;;20.92;13.65;;;12.00;94.60;;;;;;5033095;28;20037;-58
2022/03/25 02:31:54;;;;;;;21.77;12.32;;;12.00;94.40;;;;;;5033233;28;20084;-58
2022/03/25 02:34:21;;;;;;;33.50;12.90;;;12.00;94.70;;;;;;5032968;28;20141;-58
2022/03/25 02:36:49;;;;;;;19.42;12.57;;;12.00;94.90;;;;;;5034259;28;20052;-58
2022/03/25 02:39:17;;;;;;;19.02;13.13;;;12.00;94.90;;;;;;5016622;28;20056;-58
2022/03/25 02:41:46;;;;;;;15.60;11.10;;;12.00;95.00;;;;;;5016255;28;20057;-59
2022/03/25 02:44:14;;;;;;;16.13;11.73;;;12.00;94.90;;;;;;5032866;28;20505;-58
2022/03/25 02:46:45;;;;;;;16.52;12.07;;;12.00;94.60;;;;;;5033050;28;20077;-59
2022/03/25 02:49:13;;;;;;;21.15;12.85;;;12.00;94.30;;;;;;5032684;28;20042;-58
2022/03/25 02:51:41;;;;;;;17.17;12.02;;;12.10;94.30;;;;;;5033972;28;20048;-58
2022/03/25 02:54:08;;;;;;;16.33;10.38;;;12.00;94.30;;;;;;5032829;28;20073;-58
2022/03/25 02:56:36;;;;;;;13.75;10.30;;;12.10;94.40;;;;;;5033688;28;20096;-58
2022/03/25 02:59:03;;;;;;;19.13;11.43;;;12.10;94.30;;;;;;5032505;28;20045;-58
2022/03/25 03:01:33;;;;;;;17.90;11.80;;;12.00;94.20;;;;;;5033633;28;20037;-58
2022/03/25 03:04:01;;;;;;;16.80;11.63;;;12.10;94.20;;;;;;5032689;28;20037;-58
2022/03/25 03:06:28;;;;;;;16.35;12.40;;;12.10;94.20;;;;;;5032500;28;20115;-59
2022/03/25 03:08:56;;;;;;;19.35;11.52;;;12.00;94.30;;;;;;5033556;28;20099;-58
2022/03/25 03:11:24;;;;;;;19.75;10.88;;;12.00;94.40;;;;;;5033642;28;20068;-59
2022/03/25 03:13:52;;;;;;;18.38;11.50;;;12.00;94.60;;;;;;5033496;28;20129;-59
2022/03/25 03:16:19;;;;;;;17.05;10.85;;;12.00;94.80;;;;;;5015713;28;20064;-58
2022/03/25 03:18:47;;;;;;;14.85;10.77;;;12.00;95.00;;;;;;5033561;28;20050;-58
2022/03/25 03:21:15;;;;;;;15.45;10.45;;;11.90;95.00;;;;;;5017632;28;20053;-59
2022/03/25 03:23:42;;;;;;;16.05;10.88;;;12.00;95.10;;;;;;5039991;28;20530;-59
2022/03/25 03:26:10;;;;;;;16.65;9.65;;;12.00;95.10;;;;;;5040158;28;20392;-59
2022/03/25 03:28:39;;;;;;;15.52;9.98;;;11.90;95.10;;;;;;5039978;28;20496;-58
2022/03/25 03:31:06;;;;;;;16.35;9.70;;;11.90;95.20;;;;;;5038894;28;20045;-58
2022/03/25 03:33:33;;;;;;;15.35;9.88;;;11.90;95.30;;;;;;5039974;28;20153;-58
2022/03/25 03:36:01;;;;;;;13.05;9.55;;;11.90;95.50;;;;;;5040306;28;20045;-58
2022/03/25 03:38:29;;;;;;;15.85;10.35;;;11.90;95.50;;;;;;5039014;28;20059;-58
2022/03/25 03:40:57;;;;;;;13.88;9.48;;;11.80;95.70;;;;;;5039844;28;20041;-59
2022/03/25 03:43:24;;;;;;;13.77;9.13;;;11.80;96.10;;;;;;5039786;28;20099;-59
2022/03/25 03:45:51;;;;;;;14.38;10.73;;;11.80;96.40;;;;;;5039942;28;20112;-58
2022/03/25 03:48:19;;;;;;;15.45;9.30;;;11.70;96.80;;;;;;5040285;28;20038;-58
2022/03/25 03:50:46;;;;;;;19.35;10.38;;;11.70;97.20;;;;;;5038823;28;20045;-58
2022/03/25 03:53:14;;;;;;;13.07;9.00;;;11.60;97.40;;;;;;5022345;28;20067;-58
2022/03/25 03:55:41;;;;;;;14.88;9.82;;;11.60;97.60;;;;;;5038528;28;20541;-58
2022/03/25 03:58:09;;;;;;;11.48;8.85;;;11.60;97.90;;;;;;5039744;28;20042;-58
2022/03/25 04:00:37;;;;;;;12.20;8.15;;;11.50;97.90;;;;;;5039714;28;20387;-59
2022/03/25 04:03:06;;;;;;;15.55;9.48;;;11.50;98.10;;;;;;5038544;28;20044;-58
2022/03/25 04:05:33;;;;;;;16.85;10.10;;;11.50;98.10;;;;;;5038517;28;20069;-59
2022/03/25 04:08:01;;;;;;;14.88;9.63;;;11.40;98.30;;;;;;5039697;28;20042;-58
2022/03/25 04:10:28;;;;;;;18.88;9.40;;;11.40;98.30;;;;;;5039580;28;20052;-59
2022/03/25 04:12:56;;;;;;;21.95;11.25;;;11.30;98.40;;;;;;5038505;28;20041;-59
2022/03/25 04:15:23;;;;;;;17.15;10.80;;;11.30;98.60;;;;;;5039583;28;20124;-59
2022/03/25 04:17:51;;;;;;;15.80;9.80;;;11.30;98.80;;;;;;5038391;28;20060;-58
2022/03/25 04:20:18;;;;;;;19.23;10.82;;;11.30;98.90;;;;;;5041316;28;20391;-58
2022/03/25 04:22:46;;;;;;;15.90;10.30;;;11.30;99.00;;;;;;5041868;28;20048;-59
2022/03/25 04:25:14;;;;;;;16.35;11.50;;;11.40;99.00;;;;;;5059377;28;20045;-59
2022/03/25 04:28:01;;;;;;;16.10;11.23;;;11.40;99.20;;;;;;5059427;28;20673;-59
2022/03/25 04:30:33;;;;;;;20.00;10.65;;;11.40;99.30;;;;;;5059675;28;20067;-59
2022/03/25 04:33:01;;;;;;;15.85;9.85;;;11.40;99.20;;;;;;5056816;28;20053;-59
2022/03/25 04:35:30;;;;;;;18.15;11.50;;;11.40;99.40;;;;;;5056226;28;20087;-58
2022/03/25 04:37:58;;;;;;;21.15;10.65;;;11.40;99.50;;;;;;5038282;28;20045;-59
2022/03/25 04:40:28;;;;;;;17.52;11.05;;;11.40;99.70;;;;;;5056148;28;20501;-59
2022/03/25 04:42:57;;;;;;;15.25;11.40;;;11.40;99.80;;;;;;5038718;28;20048;-59
2022/03/25 04:45:26;;;;;;;19.05;11.15;;;11.40;99.80;;;;;;5038232;28;20123;-59
2022/03/25 04:47:54;;;;;;;19.02;11.32;;;11.30;99.50;;;;;;5056008;28;20068;-59
2022/03/25 04:50:22;;;;;;;16.02;11.15;;;11.40;99.40;;;;;;5038146;28;20049;-59
2022/03/25 04:52:49;;;;;;;17.85;10.98;;;11.40;98.10;;;;;;5038239;28;20147;-59
2022/03/25 04:55:18;;;;;;;17.42;11.75;;;11.40;97.10;;;;;;5055902;28;20079;-59
2022/03/25 04:57:47;;;;;;;17.15;11.27;;;11.40;96.50;;;;;;5037951;28;20095;-59
2022/03/25 05:00:17;;;;;;;18.00;11.40;;;11.50;95.80;;;;;;5055860;28;20045;-58
2022/03/25 05:02:45;;;;;;;16.67;11.05;;;11.60;95.40;;;;;;5038068;28;20041;-59
2022/03/25 05:05:13;;;;;;;16.95;11.50;;;11.70;94.90;;;;;;5055647;28;20119;-59
2022/03/25 05:07:46;;;;;;;18.55;11.35;;;11.80;94.50;;;;;;5038293;28;20044;-59
2022/03/25 05:10:14;;;;;;;18.00;12.60;;;11.90;94.30;;;;;;5055802;28;20045;-59
2022/03/25 05:12:43;;;;;;;18.98;11.85;;;12.00;93.70;;;;;;5055636;28;20056;-59
2022/03/25 05:15:11;;;;;;;16.73;11.55;;;12.10;93.20;;;;;;5055493;28;20559;-58
2022/03/25 05:17:46;;;;;;;17.77;11.55;;;12.30;93.10;;;;;;5037787;28;20483;-59
2022/03/25 05:20:15;;;;;;;16.63;10.80;;;12.40;93.00;;;;;;5055255;28;20149;-58
2022/03/25 05:22:44;;;;;;;15.68;11.20;;;12.60;93.00;;;;;;5042126;28;20077;-59
2022/03/25 05:25:11;;;;;;;18.23;11.57;;;12.70;92.80;;;;;;5037457;28;20043;-59
2022/03/25 05:27:54;;;;;;;19.13;11.70;;;12.90;92.60;;;;;;5036439;28;20049;-58
2022/03/25 05:30:24;;;;;;;16.52;11.20;;;13.00;92.50;;;;;;5034097;28;20128;-59
2022/03/25 05:32:54;;;;;;;18.85;10.88;;;13.20;92.00;;;;;;5038358;28;20454;-59
2022/03/25 05:35:23;;;;;;;20.17;10.60;;;13.30;91.70;;;;;;5038499;28;20045;-59
2022/03/25 05:37:51;;;;;;;17.92;10.73;;;13.50;91.50;;;;;;5054580;28;20044;-59
2022/03/25 05:40:20;;;;;;;18.85;11.57;;;13.70;91.50;;;;;;5026395;28;20044;-59
2022/03/25 05:42:48;;;;;;;16.70;11.82;;;13.80;91.20;;;;;;5054216;28;20132;-59
2022/03/25 05:45:20;;;;;;;21.27;12.18;;;13.90;91.10;;;;;;5037928;28;20069;-59
2022/03/25 05:47:49;;;;;;;15.27;10.70;;;14.10;91.00;;;;;;5054182;28;20144;-59
2022/03/25 05:50:17;;;;;;;17.52;11.05;;;14.20;90.70;;;;;;5034868;28;20379;-60
2022/03/25 05:52:45;;;;;;;15.20;11.65;;;14.30;90.80;;;;;;5053925;28;20037;-58
2022/03/25 05:55:13;;;;;;;17.25;11.90;;;14.40;91.00;;;;;;5050280;28;20522;-59
2022/03/25 05:57:41;;;;;;;16.17;9.63;;;14.50;91.10;;;;;;5035994;28;20056;-59
2022/03/25 06:00:09;;;;;;;16.52;10.30;;;14.70;91.10;;;;;;5024785;28;20522;-59
2022/03/25 06:02:41;;;;;;;15.77;10.18;;;14.80;90.30;;;;;;5054035;28;20033;-59
2022/03/25 06:05:09;;;;;;;18.13;11.10;;;15.00;89.50;;;;;;5047699;28;20052;-60
2022/03/25 06:07:42;;;;;;;16.10;10.80;;;15.20;88.60;;;;;;5053563;28;20052;-59
2022/03/25 06:10:11;;;;;;;18.55;10.63;;;15.40;87.20;;;;;;5035457;28;20048;-59
2022/03/25 06:12:39;;;;;;;16.95;10.63;;;15.50;85.90;;;;;;5054361;28;20572;-59
2022/03/25 06:15:08;;;;;;;11.60;10.07;;;15.70;85.20;;;;;;5036799;28;20467;-59
2022/03/25 06:17:44;;;;;;;13.98;11.20;;;15.80;84.50;;;;;;5036671;28;20049;-59
2022/03/25 06:20:13;;;;;;;15.00;9.60;;;16.00;83.50;;;;;;5036228;28;20120;-59
2022/03/25 06:22:42;;;;;;;15.48;9.48;;;16.10;82.80;;;;;;5036582;28;20059;-59
2022/03/25 06:25:11;;;;;;;16.40;10.07;;;16.20;82.50;;;;;;5054486;28;20045;-59
2022/03/25 06:27:55;;;;;;;12.55;9.02;;;16.30;81.80;;;;;;5054319;28;20049;-59
2022/03/25 06:30:27;;;;;;;13.75;9.57;;;16.50;81.60;;;;;;5054110;28;20094;-59
2022/03/25 06:32:55;;;;;;;15.77;10.55;;;16.60;81.50;;;;;;5054304;28;20055;-59
2022/03/25 06:35:23;;;;;;;14.05;10.38;;;16.80;81.50;;;;;;5053939;28;20037;-59
2022/03/25 06:37:53;;;;;;;16.63;9.88;;;16.90;81.40;;;;;;5036248;28;20048;-59
2022/03/25 06:40:24;;;;;;;19.70;10.35;;;17.10;81.60;;;;;;5053905;28;20084;-59
2022/03/25 06:42:54;;;;;;;15.65;9.32;;;17.20;80.70;;;;;;5036105;28;20064;-59
2022/03/25 06:45:22;;;;;;;15.43;9.80;;;17.40;80.50;;;;;;5053592;28;20449;-59
2022/03/25 06:47:50;;;;;;;11.40;8.85;;;17.50;80.30;;;;;;5053745;28;20060;-59
2022/03/25 06:50:21;;;;;;;13.95;9.93;;;17.70;80.10;;;;;;5036187;28;20037;-58
2022/03/25 06:52:48;;;;;;;14.98;9.27;;;17.80;80.40;;;;;;5052717;28;20518;-59
2022/03/25 06:55:17;;;;;;;17.60;10.38;;;17.90;80.00;;;;;;5053522;28;20564;-59
2022/03/25 06:57:48;;;;;;;16.05;10.02;;;18.00;80.20;;;;;;5053143;28;20033;-59
2022/03/25 07:00:17;;;;;;;15.55;10.40;;;18.20;79.80;;;;;;5035809;28;20155;-59
2022/03/25 07:02:45;;;;;;;13.63;9.57;;;18.30;79.70;;;;;;5035844;28;20057;-59
2022/03/25 07:05:13;;;;;;;13.07;9.93;;;18.40;79.20;;;;;;5053414;28;20037;-59
2022/03/25 07:07:42;;;;;;;15.35;10.00;;;18.50;78.80;;;;;;5053442;28;20041;-59
2022/03/25 07:10:12;;;;;;;15.40;10.65;;;18.70;77.80;;;;;;5053370;28;20103;-59
2022/03/25 07:12:42;;;;;;;18.85;11.55;;;18.80;78.40;;;;;;5053559;28;20068;-59
2022/03/25 07:15:10;;;;;;;12.57;9.50;;;18.90;77.80;;;;;;5053244;28;20052;-59
2022/03/25 07:17:40;;;;;;;12.13;9.00;;;19.00;76.80;;;;;;5053381;28;20084;-59
2022/03/25 07:20:08;;;;;;;15.55;10.25;;;19.10;76.30;;;;;;5053333;28;20078;-59
2022/03/25 07:22:36;;;;;;;14.02;10.52;;;19.10;75.40;;;;;;5053758;28;20049;-59
2022/03/25 07:25:04;;;;;;;12.35;8.65;;;19.20;75.20;;;;;;5035740;28;20106;-59
2022/03/25 07:27:32;;;;;;;12.88;9.07;;;19.30;75.30;;;;;;5053431;28;20564;-59
2022/03/25 07:29:59;;;;;;;13.77;9.23;;;19.30;75.80;;;;;;5053304;28;20509;-59
2022/03/25 07:32:27;;;;;;;11.43;9.30;;;19.50;75.40;;;;;;5035727;28;20393;-59
2022/03/25 07:34:54;;;;;;;14.32;9.63;;;19.60;75.40;;;;;;5053436;28;20127;-59
2022/03/25 07:37:22;;;;;;;19.85;9.10;;;19.70;75.30;;;;;;5053258;28;20033;-60
2022/03/25 07:39:50;;;;;;;14.65;9.95;;;19.70;75.30;;;;;;5035391;28;20045;-60
2022/03/25 07:42:19;;;;;;;15.43;9.32;;;19.80;75.50;;;;;;5053154;28;20045;-59
2022/03/25 07:44:47;;;;;;;12.48;8.43;;;19.80;74.70;;;;;;5053172;28;20057;-59
2022/03/25 07:47:18;;;;;;;17.52;11.30;;;19.90;76.00;;;;;;5053342;28;20051;-59
2022/03/25 07:49:46;;;;;;;15.27;10.18;;;20.00;77.90;;;;;;5052132;28;20044;-59
2022/03/25 07:52:14;;;;;;;16.92;10.30;;;20.10;78.10;;;;;;5053174;28;20044;-59
2022/03/25 07:54:41;;;;;;;17.65;11.45;;;20.10;77.60;;;;;;5053274;28;20483;-59
2022/03/25 07:57:09;;;;;;;15.10;10.45;;;20.10;77.10;;;;;;5053233;28;20073;-59
2022/03/25 07:59:36;;;;;;;15.25;9.75;;;20.10;77.10;;;;;;5035876;28;20095;-59
2022/03/25 08:02:05;;;;;;;14.20;10.13;;;20.20;76.60;;;;;;5053405;28;20074;-60
2022/03/25 08:04:32;;;;;;;15.52;9.73;;;20.30;76.30;;;;;;5035549;28;20126;-59
2022/03/25 08:07:00;;;;;;;14.18;9.25;;;20.40;75.50;;;;;;5035535;28;20033;-60
2022/03/25 08:09:27;;;;;;;13.35;8.75;;;20.50;74.90;;;;;;5056857;28;20483;-60
2022/03/25 08:11:55;;;;;;;13.38;9.70;;;20.50;73.90;;;;;;5039182;28;20364;-59
2022/03/25 08:14:23;;;;;;;15.13;9.98;;;20.60;73.80;;;;;;5039154;28;20132;-59
2022/03/25 08:16:50;;;;;;;16.48;10.18;;;20.70;73.90;;;;;;5056714;28;20041;-59
2022/03/25 08:19:18;;;;;;;16.20;10.43;;;20.70;73.30;;;;;;5056523;28;20048;-59
2022/03/25 08:21:45;;;;;;;13.65;8.75;;;20.80;72.00;;;;;;5056182;28;20052;-59
2022/03/25 08:29:47;;;;;;;14.93;10.43;;;21.10;71.10;;;;;;5056515;28;20041;-59
2022/03/25 08:32:16;;;;;;;11.88;8.43;;;21.10;70.40;;;;;;5056349;28;20044;-59
2022/03/25 08:34:43;;;;;;;14.63;9.25;;;21.00;70.00;;;;;;5056284;28;20049;-59
2022/03/25 08:37:11;;;;;;;13.65;9.35;;;21.10;69.70;;;;;;5056230;28;20491;-59
2022/03/25 08:39:39;;;;;;;17.45;9.07;;;21.10;70.20;;;;;;5056313;28;20071;-59
2022/03/25 08:42:08;;;;;;;14.63;9.90;;;21.10;69.70;;;;;;5056213;28;20068;-59
2022/03/25 08:44:36;;;;;;;16.50;9.18;;;21.20;69.40;;;;;;5056118;28;20045;-59
2022/03/25 08:47:04;;;;;;;17.00;9.43;;;21.20;68.70;;;;;;5055957;28;20048;-59
2022/03/25 08:49:32;;;;;;;13.63;8.77;;;21.20;68.50;;;;;;5038471;28;20135;-60
2022/03/25 08:52:00;;;;;;;15.90;10.20;;;21.30;68.40;;;;;;5055085;28;20029;-59
2022/03/25 08:54:28;;;;;;;14.90;9.55;;;21.40;68.40;;;;;;5056097;28;20040;-59
2022/03/25 08:56:55;;;;;;;17.58;9.32;;;21.50;68.70;;;;;;5055915;28;20048;-59
2022/03/25 08:59:23;;;;;;;10.45;8.40;;;21.50;68.50;;;;;;5055765;28;20045;-59
2022/03/25 09:01:50;;;;;;;13.55;9.88;;;21.50;68.30;;;;;;5055777;28;20541;-59
2022/03/25 09:04:20;;;;;;;12.10;8.32;;;21.60;67.80;;;;;;5056044;28;20068;-59
2022/03/25 09:06:48;;;;;;;17.00;8.30;;;21.50;66.70;;;;;;5055696;28;20491;-59
2022/03/25 09:09:15;;;;;;;17.58;9.55;;;21.50;65.50;;;;;;5055671;28;20128;-59
2022/03/25 09:11:43;;;;;;;14.35;9.35;;;21.50;66.20;;;;;;5055681;28;20053;-59
2022/03/25 09:14:11;;;;;;;13.32;8.95;;;21.70;66.60;;;;;;5054320;28;20080;-59
2022/03/25 09:16:39;;;;;;;14.40;10.30;;;21.60;66.90;;;;;;5055525;28;20059;-60
2022/03/25 09:19:06;;;;;;;14.82;9.25;;;21.60;65.20;;;;;;5054640;28;20037;-59
2022/03/25 09:21:34;;;;;;;11.98;7.75;;;21.40;65.10;;;;;;5055200;28;20072;-60
2022/03/25 09:24:02;;;;;;;14.63;8.20;;;21.50;66.20;;;;;;5037718;28;20395;-59
2022/03/25 09:26:30;;;;;;;13.95;9.25;;;21.70;65.50;;;;;;5055432;28;20033;-60
2022/03/25 09:28:58;;;;;;;11.07;8.23;;;21.70;64.00;;;;;;5055314;28;20052;-60
2022/03/25 09:31:25;;;;;;;11.23;8.10;;;21.70;63.20;;;;;;5054202;28;20067;-60
2022/03/25 09:36:53;;;;;;;9.20;7.25;;;21.90;62.20;;;;;;5055410;28;20118;-60
2022/03/25 09:39:24;;;;;;;10.55;7.43;;;22.00;61.80;;;;;;5055032;28;20047;-60
2022/03/25 09:41:52;;;;;;;10.18;6.90;;;22.00;62.00;;;;;;5055138;28;20055;-60
2022/03/25 09:44:22;;;;;;;10.52;7.75;;;22.00;62.40;;;;;;5055262;28;20495;-60
2022/03/25 09:46:50;;;;;;;15.63;8.68;;;22.10;61.60;;;;;;5054964;28;20048;-59
2022/03/25 09:49:18;;;;;;;11.27;7.50;;;22.10;62.00;;;;;;5055015;28;20049;-60
2022/03/25 09:51:46;;;;;;;10.57;7.03;;;22.10;62.50;;;;;;5054792;28;20090;-60
2022/03/25 09:54:16;;;;;;;10.48;7.53;;;22.10;62.30;;;;;;5054931;28;20410;-60
2022/03/25 09:56:44;;;;;;;11.25;7.35;;;22.10;61.50;;;;;;5054951;28;20545;-60
2022/03/25 09:59:18;;;;;;;14.23;8.25;;;22.20;61.70;;;;;;5020624;28;20048;-59
2022/03/25 10:01:46;;;;;;;11.35;7.93;;;22.30;63.50;;;;;;5054699;28;20037;-59
2022/03/25 10:04:36;;;;;;;11.13;8.00;;;22.30;61.80;;;;;;5054621;28;20480;-59
2022/03/25 10:07:14;;;;;;;9.63;6.72;;;22.40;61.50;;;;;;5054864;28;20045;-59
2022/03/25 10:09:42;;;;;;;11.55;7.43;;;22.40;61.20;;;;;;5054747;28;20037;-60
2022/03/25 10:12:22;;;;;;;9.32;7.13;;;22.30;62.80;;;;;;5054378;28;20128;-59
2022/03/25 10:14:51;;;;;;;13.60;8.18;;;22.30;62.60;;;;;;5036881;28;20073;-60
2022/03/25 10:17:19;;;;;;;10.05;7.28;;;22.30;62.10;;;;;;5054343;28;20132;-60
2022/03/25 10:19:49;;;;;;;11.50;8.05;;;22.30;61.80;;;;;;5036589;28;20123;-60
2022/03/25 10:22:22;;;;;;;12.07;7.32;;;22.40;61.00;;;;;;5054569;28;20045;-59
2022/03/25 10:24:53;;;;;;;9.85;7.30;;;22.40;61.40;;;;;;5054755;28;20069;-59
2022/03/25 10:27:28;;;;;;;12.43;7.90;;;22.40;61.90;;;;;;5054525;28;20037;-60
2022/03/25 10:29:56;;;;;;;10.55;7.50;;;22.40;61.70;;;;;;5054210;28;20356;-59
2022/03/25 10:32:26;;;;;;;12.18;7.85;;;22.50;62.00;;;;;;5018893;28;20438;-60
2022/03/25 10:35:03;;;;;;;13.52;7.72;;;22.50;62.60;;;;;;5054068;28;20479;-59
2022/03/25 10:37:30;;;;;;;14.38;8.30;;;22.50;62.50;;;;;;5054096;28;20044;-59
2022/03/25 10:39:58;;;;;;;14.95;8.25;;;22.30;62.30;;;;;;5036410;28;20059;-59
2022/03/25 10:42:26;;;;;;;12.68;8.40;;;22.30;62.60;;;;;;5036198;28;20372;-60
2022/03/25 10:44:55;;;;;;;18.90;9.32;;;22.30;61.60;;;;;;5054184;28;20045;-60
2022/03/25 10:47:25;;;;;;;14.30;8.13;;;22.20;62.30;;;;;;5053835;28;20487;-60
2022/03/25 10:49:54;;;;;;;13.30;8.80;;;22.20;61.90;;;;;;5054110;28;20091;-59
2022/03/25 10:52:34;;;;;;;18.38;10.13;;;22.30;62.60;;;;;;5053765;28;20037;-60
2022/03/25 10:55:24;;;;;;;23.10;9.73;;;22.30;62.30;;;;;;5053760;28;20049;-59
2022/03/25 10:57:58;;;;;;;12.68;9.07;;;22.30;61.00;;;;;;5054073;28;20365;-59
2022/03/25 11:00:27;;;;;;;25.27;12.18;;;22.30;61.40;;;;;;5053781;28;20044;-59
2022/03/25 11:02:55;;;;;;;34.90;16.88;;;22.40;60.90;;;;;;5053699;28;20045;-59
2022/03/25 11:05:25;;;;;;;34.17;16.77;;;22.40;60.80;;;;;;5053565;28;20052;-60
2022/03/25 11:07:53;;;;;;;24.90;13.85;;;22.50;60.20;;;;;;5053566;28;20037;-60
2022/03/25 11:10:21;;;;;;;18.38;10.45;;;22.60;60.00;;;;;;5053654;28;20052;-60
2022/03/25 11:12:53;;;;;;;10.88;8.10;;;22.50;61.10;;;;;;5053521;28;20044;-60
2022/03/25 11:15:21;;;;;;;13.52;8.00;;;22.50;62.00;;;;;;5053664;28;20049;-60
2022/03/25 11:17:49;;;;;;;9.57;7.45;;;22.50;61.00;;;;;;5053352;28;20041;-60
2022/03/25 11:20:19;;;;;;;9.43;6.97;;;22.40;61.80;;;;;;5053318;28;20550;-60
2022/03/25 11:22:52;;;;;;;13.95;7.68;;;22.20;62.20;;;;;;5035903;28;20055;-60
2022/03/25 11:25:23;;;;;;;10.13;7.63;;;22.00;61.20;;;;;;5053641;28;20045;-60
2022/03/25 11:28:01;;;;;;;10.57;7.43;;;21.70;62.20;;;;;;5053502;28;20045;-59
2022/03/25 11:30:35;;;;;;;11.05;7.45;;;21.70;61.80;;;;;;5035957;28;20045;-60
2022/03/25 11:33:07;;;;;;;10.27;7.03;;;21.70;62.80;;;;;;5053454;28;20056;-59
2022/03/25 11:35:37;;;;;;;10.68;8.02;;;21.70;62.90;;;;;;5035369;28;20053;-60
2022/03/25 11:38:23;;;;;;;10.38;6.80;;;21.60;61.00;;;;;;5035677;28;20091;-59
2022/03/25 11:40:52;;;;;;;12.98;7.68;;;21.50;62.20;;;;;;5053299;28;20049;-59
2022/03/25 11:43:21;;;;;;;11.43;7.72;;;21.40;62.20;;;;;;5038182;28;20049;-59
2022/03/25 11:46:02;;;;;;;11.77;8.38;;;21.30;60.80;;;;;;5056327;28;20133;-59
2022/03/25 11:48:30;;;;;;;10.10;6.78;;;21.30;61.70;;;;;;5057602;28;20041;-59
2022/03/25 11:51:00;;;;;;;9.25;6.78;;;21.30;61.80;;;;;;5039347;28;20053;-59
2022/03/25 11:53:27;;;;;;;11.02;7.53;;;21.30;62.00;;;;;;5057090;28;20087;-59
2022/03/25 11:56:03;;;;;;;9.27;7.53;;;21.40;61.40;;;;;;5056131;28;20391;-59
2022/03/25 11:58:38;;;;;;;19.63;9.02;;;21.40;61.20;;;;;;5056948;28;20555;-59
2022/03/25 12:01:13;;;;;;;12.82;7.80;;;21.50;60.50;;;;;;5057046;28;20091;-59
2022/03/25 12:03:47;;;;;;;11.27;7.45;;;21.50;58.70;;;;;;5039225;28;20143;-60
2022/03/25 12:06:29;;;;;;;12.60;7.53;;;21.50;57.50;;;;;;5057447;28;20379;-59
2022/03/25 12:09:18;;;;;;;14.65;6.97;;;21.50;57.90;;;;;;5057037;28;20041;-59
2022/03/25 12:11:50;;;;;;;8.73;7.13;;;21.40;56.80;;;;;;5056897;28;20044;-59
2022/03/25 12:14:31;;;;;;;13.60;7.35;;;21.40;55.90;;;;;;5056730;28;20486;-59
2022/03/25 12:17:07;;;;;;;14.15;7.57;;;21.40;56.10;;;;;;5056776;28;20426;-59
2022/03/25 12:19:38;;;;;;;15.50;9.00;;;21.40;56.20;;;;;;5056490;28;20495;-59
2022/03/25 12:22:18;;;;;;;10.95;7.47;;;21.40;55.70;;;;;;5054959;28;20052;-60
2022/03/25 12:24:47;;;;;;;10.07;6.57;;;21.50;54.80;;;;;;5055914;28;20556;-60
2022/03/25 12:27:17;;;;;;;16.60;8.98;;;21.50;54.60;;;;;;5055561;28;20094;-60
2022/03/25 12:29:48;;;;;;;27.50;13.60;;;21.50;55.00;;;;;;5056451;28;20037;-59
2022/03/25 12:32:18;;;;;;;13.32;9.00;;;21.50;54.50;;;;;;5056460;28;20045;-60
2022/03/25 12:34:58;;;;;;;9.75;7.30;;;21.50;53.50;;;;;;5056374;28;20037;-60
2022/03/25 12:37:35;;;;;;;10.27;7.15;;;21.40;52.80;;;;;;5054308;28;20519;-59
2022/03/25 12:40:26;;;;;;;8.88;7.22;;;21.30;54.00;;;;;;5025003;28;20052;-59
2022/03/25 12:42:59;;;;;;;10.73;6.93;;;21.30;54.30;;;;;;5055639;28;20412;-59
2022/03/25 12:45:34;;;;;;;11.73;7.72;;;21.20;57.50;;;;;;5055609;28;20059;-60
2022/03/25 12:48:14;;;;;;;10.77;6.83;;;21.10;58.90;;;;;;5055147;28;20048;-60
2022/03/25 12:50:44;;;;;;;8.23;6.15;;;21.00;59.60;;;;;;5045646;28;20051;-60